sensor_id;sensor_type;location;lat;lon;timestamp;P1;durP1;ratioP1;P2;durP2;ratioP2
24650;SDS011;12783;48.824;8.662;2022-10-16T00:02:22;3.28;;;0.73;;
24650;SDS011;12783;48.824;8.662;2022-10-16T00:04:49;3.08;;;0.70;;
24650;SDS011;12783;48.824;8.662;2022-10-16T00:07:15;1.38;;;0.68;;
24650;SDS011;12783;48.824;8.662;2022-10-16T00:09:42;1.50;;;0.88;;
24650;SDS011;12783;48.824;8.662;2022-10-16T00:12:09;3.10;;;0.60;;
24650;SDS011;12783;48.824;8.662;2022-10-16T00:14:35;5.45;;;0.80;;
24650;SDS011;12783;48.824;8.662;2022-10-16T00:17:02;2.45;;;0.80;;
24650;SDS011;12783;48.824;8.662;2022-10-16T00:19:29;0.80;;;0.70;;
24650;SDS011;12783;48.824;8.662;2022-10-16T00:21:56;4.00;;;0.80;;
24650;SDS011;12783;48.824;8.662;2022-10-16T00:24:22;3.28;;;0.70;;
24650;SDS011;12783;48.824;8.662;2022-10-16T00:26:49;1.75;;;0.70;;
24650;SDS011;12783;48.824;8.662;2022-10-16T00:29:16;1.38;;;0.90;;
24650;SDS011;12783;48.824;8.662;2022-10-16T00:31:43;1.88;;;0.90;;
24650;SDS011;12783;48.824;8.662;2022-10-16T00:34:09;0.70;;;0.70;;
24650;SDS011;12783;48.824;8.662;2022-10-16T00:36:36;4.10;;;0.80;;
24650;SDS011;12783;48.824;8.662;2022-10-16T00:39:03;4.43;;;0.90;;
24650;SDS011;12783;48.824;8.662;2022-10-16T00:41:30;2.25;;;0.65;;
24650;SDS011;12783;48.824;8.662;2022-10-16T00:43:58;3.58;;;0.80;;
24650;SDS011;12783;48.824;8.662;2022-10-16T00:46:33;1.92;;;0.75;;
24650;SDS011;12783;48.824;8.662;2022-10-16T00:49:10;4.13;;;0.90;;
24650;SDS011;12783;48.824;8.662;2022-10-16T00:51:46;2.53;;;1.08;;
24650;SDS011;12783;48.824;8.662;2022-10-16T00:54:17;1.85;;;0.70;;
24650;SDS011;12783;48.824;8.662;2022-10-16T00:56:46;1.73;;;0.73;;
24650;SDS011;12783;48.824;8.662;2022-10-16T00:59:18;1.95;;;0.70;;
24650;SDS011;12783;48.824;8.662;2022-10-16T01:01:47;2.97;;;0.95;;
24650;SDS011;12783;48.824;8.662;2022-10-16T01:04:14;1.60;;;1.00;;
24650;SDS011;12783;48.824;8.662;2022-10-16T01:06:50;3.85;;;0.85;;
24650;SDS011;12783;48.824;8.662;2022-10-16T01:18:05;5.75;;;0.77;;
24650;SDS011;12783;48.824;8.662;2022-10-16T01:20:48;3.70;;;0.77;;
24650;SDS011;12783;48.824;8.662;2022-10-16T01:26:14;2.60;;;0.80;;
24650;SDS011;12783;48.824;8.662;2022-10-16T01:28:55;1.75;;;0.70;;
24650;SDS011;12783;48.824;8.662;2022-10-16T01:31:24;2.13;;;0.77;;
24650;SDS011;12783;48.824;8.662;2022-10-16T01:33:59;3.00;;;0.90;;
24650;SDS011;12783;48.824;8.662;2022-10-16T01:36:40;1.88;;;0.77;;
24650;SDS011;12783;48.824;8.662;2022-10-16T01:39:12;2.72;;;0.70;;
24650;SDS011;12783;48.824;8.662;2022-10-16T01:41:43;2.85;;;0.80;;
24650;SDS011;12783;48.824;8.662;2022-10-16T01:46:46;0.77;;;0.77;;
24650;SDS011;12783;48.824;8.662;2022-10-16T01:49:13;2.20;;;1.00;;
24650;SDS011;12783;48.824;8.662;2022-10-16T01:51:41;3.72;;;0.82;;
24650;SDS011;12783;48.824;8.662;2022-10-16T01:54:10;1.40;;;0.80;;
24650;SDS011;12783;48.824;8.662;2022-10-16T01:56:38;2.90;;;0.80;;
24650;SDS011;12783;48.824;8.662;2022-10-16T01:59:06;1.30;;;0.90;;
24650;SDS011;12783;48.824;8.662;2022-10-16T02:01:37;2.45;;;0.80;;
24650;SDS011;12783;48.824;8.662;2022-10-16T02:04:12;2.03;;;0.60;;
24650;SDS011;12783;48.824;8.662;2022-10-16T02:06:45;0.68;;;0.68;;
24650;SDS011;12783;48.824;8.662;2022-10-16T02:09:12;1.83;;;0.68;;
24650;SDS011;12783;48.824;8.662;2022-10-16T02:11:39;0.93;;;0.68;;
24650;SDS011;12783;48.824;8.662;2022-10-16T02:14:06;1.50;;;0.80;;
24650;SDS011;12783;48.824;8.662;2022-10-16T02:16:37;1.38;;;0.80;;
24650;SDS011;12783;48.824;8.662;2022-10-16T02:19:06;5.47;;;0.85;;
24650;SDS011;12783;48.824;8.662;2022-10-16T02:21:44;2.28;;;0.88;;
24650;SDS011;12783;48.824;8.662;2022-10-16T02:26:51;2.60;;;0.80;;
24650;SDS011;12783;48.824;8.662;2022-10-16T02:29:23;0.90;;;0.70;;
24650;SDS011;12783;48.824;8.662;2022-10-16T02:31:52;1.55;;;0.70;;
24650;SDS011;12783;48.824;8.662;2022-10-16T02:34:22;2.70;;;0.60;;
24650;SDS011;12783;48.824;8.662;2022-10-16T02:36:50;2.13;;;1.00;;
24650;SDS011;12783;48.824;8.662;2022-10-16T02:39:17;2.25;;;1.00;;
24650;SDS011;12783;48.824;8.662;2022-10-16T02:41:44;2.67;;;0.85;;
24650;SDS011;12783;48.824;8.662;2022-10-16T02:44:11;1.45;;;0.82;;
24650;SDS011;12783;48.824;8.662;2022-10-16T02:46:38;6.30;;;0.80;;
24650;SDS011;12783;48.824;8.662;2022-10-16T02:49:05;4.68;;;0.75;;
24650;SDS011;12783;48.824;8.662;2022-10-16T02:51:31;1.60;;;0.70;;
24650;SDS011;12783;48.824;8.662;2022-10-16T02:53:58;3.13;;;1.00;;
24650;SDS011;12783;48.824;8.662;2022-10-16T02:56:25;2.35;;;0.90;;
24650;SDS011;12783;48.824;8.662;2022-10-16T02:58:52;3.08;;;1.05;;
24650;SDS011;12783;48.824;8.662;2022-10-16T03:01:18;0.68;;;0.60;;
24650;SDS011;12783;48.824;8.662;2022-10-16T03:03:45;2.47;;;0.73;;
24650;SDS011;12783;48.824;8.662;2022-10-16T03:06:12;3.70;;;0.90;;
24650;SDS011;12783;48.824;8.662;2022-10-16T03:08:39;1.95;;;0.60;;
24650;SDS011;12783;48.824;8.662;2022-10-16T03:11:05;3.45;;;0.77;;
24650;SDS011;12783;48.824;8.662;2022-10-16T03:13:32;1.27;;;0.80;;
24650;SDS011;12783;48.824;8.662;2022-10-16T03:15:59;0.98;;;0.80;;
24650;SDS011;12783;48.824;8.662;2022-10-16T03:18:26;1.40;;;0.57;;
24650;SDS011;12783;48.824;8.662;2022-10-16T03:20:52;1.00;;;0.70;;
24650;SDS011;12783;48.824;8.662;2022-10-16T03:23:19;1.83;;;0.80;;
24650;SDS011;12783;48.824;8.662;2022-10-16T03:25:46;4.03;;;0.88;;
24650;SDS011;12783;48.824;8.662;2022-10-16T03:28:13;1.13;;;0.90;;
24650;SDS011;12783;48.824;8.662;2022-10-16T03:30:40;2.20;;;0.70;;
24650;SDS011;12783;48.824;8.662;2022-10-16T03:33:07;0.60;;;0.60;;
24650;SDS011;12783;48.824;8.662;2022-10-16T03:35:33;0.95;;;0.70;;
24650;SDS011;12783;48.824;8.662;2022-10-16T03:38:00;3.38;;;0.65;;
24650;SDS011;12783;48.824;8.662;2022-10-16T03:40:27;3.85;;;0.80;;
24650;SDS011;12783;48.824;8.662;2022-10-16T03:42:54;2.58;;;0.73;;
24650;SDS011;12783;48.824;8.662;2022-10-16T03:45:23;2.92;;;0.80;;
24650;SDS011;12783;48.824;8.662;2022-10-16T03:47:50;0.77;;;0.75;;
24650;SDS011;12783;48.824;8.662;2022-10-16T03:50:17;2.05;;;0.70;;
24650;SDS011;12783;48.824;8.662;2022-10-16T03:52:44;4.30;;;0.73;;
24650;SDS011;12783;48.824;8.662;2022-10-16T03:55:10;1.45;;;0.90;;
24650;SDS011;12783;48.824;8.662;2022-10-16T03:57:37;2.22;;;0.80;;
24650;SDS011;12783;48.824;8.662;2022-10-16T04:00:04;3.42;;;0.70;;
24650;SDS011;12783;48.824;8.662;2022-10-16T04:02:32;3.70;;;0.85;;
24650;SDS011;12783;48.824;8.662;2022-10-16T04:04:59;4.25;;;0.88;;
24650;SDS011;12783;48.824;8.662;2022-10-16T04:07:25;3.53;;;0.80;;
24650;SDS011;12783;48.824;8.662;2022-10-16T04:09:53;0.80;;;0.77;;
24650;SDS011;12783;48.824;8.662;2022-10-16T04:12:19;1.33;;;0.80;;
24650;SDS011;12783;48.824;8.662;2022-10-16T04:14:46;5.18;;;0.60;;
24650;SDS011;12783;48.824;8.662;2022-10-16T04:17:13;2.20;;;0.80;;
24650;SDS011;12783;48.824;8.662;2022-10-16T04:19:40;2.05;;;0.80;;
24650;SDS011;12783;48.824;8.662;2022-10-16T04:22:07;1.27;;;0.95;;
24650;SDS011;12783;48.824;8.662;2022-10-16T04:24:34;3.90;;;0.73;;
24650;SDS011;12783;48.824;8.662;2022-10-16T04:27:00;2.90;;;0.98;;
24650;SDS011;12783;48.824;8.662;2022-10-16T04:29:27;0.88;;;0.77;;
24650;SDS011;12783;48.824;8.662;2022-10-16T04:31:54;1.17;;;0.85;;
24650;SDS011;12783;48.824;8.662;2022-10-16T04:34:21;6.32;;;1.02;;
24650;SDS011;12783;48.824;8.662;2022-10-16T04:36:48;1.20;;;0.63;;
24650;SDS011;12783;48.824;8.662;2022-10-16T04:39:17;1.33;;;0.85;;
24650;SDS011;12783;48.824;8.662;2022-10-16T04:41:44;2.67;;;0.70;;
24650;SDS011;12783;48.824;8.662;2022-10-16T04:44:11;3.55;;;1.13;;
24650;SDS011;12783;48.824;8.662;2022-10-16T04:46:38;4.15;;;0.68;;
24650;SDS011;12783;48.824;8.662;2022-10-16T04:49:04;1.48;;;0.65;;
24650;SDS011;12783;48.824;8.662;2022-10-16T04:51:31;0.80;;;0.80;;
24650;SDS011;12783;48.824;8.662;2022-10-16T04:53:58;2.78;;;0.90;;
24650;SDS011;12783;48.824;8.662;2022-10-16T04:56:25;1.83;;;0.70;;
24650;SDS011;12783;48.824;8.662;2022-10-16T04:58:52;6.85;;;0.95;;
24650;SDS011;12783;48.824;8.662;2022-10-16T05:01:19;3.55;;;0.90;;
24650;SDS011;12783;48.824;8.662;2022-10-16T05:03:45;4.97;;;0.93;;
24650;SDS011;12783;48.824;8.662;2022-10-16T05:06:12;1.00;;;0.90;;
24650;SDS011;12783;48.824;8.662;2022-10-16T05:08:39;3.70;;;0.90;;
24650;SDS011;12783;48.824;8.662;2022-10-16T05:11:06;0.80;;;0.70;;
24650;SDS011;12783;48.824;8.662;2022-10-16T05:13:33;3.10;;;0.90;;
24650;SDS011;12783;48.824;8.662;2022-10-16T05:16:00;2.03;;;0.70;;
24650;SDS011;12783;48.824;8.662;2022-10-16T05:18:27;7.95;;;2.47;;
24650;SDS011;12783;48.824;8.662;2022-10-16T05:20:54;2.95;;;1.23;;
24650;SDS011;12783;48.824;8.662;2022-10-16T05:23:20;4.90;;;1.00;;
24650;SDS011;12783;48.824;8.662;2022-10-16T05:25:54;7.97;;;1.15;;
24650;SDS011;12783;48.824;8.662;2022-10-16T05:28:21;0.88;;;0.88;;
24650;SDS011;12783;48.824;8.662;2022-10-16T05:30:48;8.27;;;1.00;;
24650;SDS011;12783;48.824;8.662;2022-10-16T05:33:15;2.85;;;0.90;;
24650;SDS011;12783;48.824;8.662;2022-10-16T05:35:42;1.08;;;0.88;;
24650;SDS011;12783;48.824;8.662;2022-10-16T05:38:10;1.05;;;0.90;;
24650;SDS011;12783;48.824;8.662;2022-10-16T05:40:36;3.35;;;0.60;;
24650;SDS011;12783;48.824;8.662;2022-10-16T05:43:03;2.17;;;1.02;;
24650;SDS011;12783;48.824;8.662;2022-10-16T05:45:30;3.10;;;1.05;;
24650;SDS011;12783;48.824;8.662;2022-10-16T05:47:56;2.85;;;1.30;;
24650;SDS011;12783;48.824;8.662;2022-10-16T05:50:23;1.85;;;1.40;;
24650;SDS011;12783;48.824;8.662;2022-10-16T05:52:50;3.55;;;1.38;;
24650;SDS011;12783;48.824;8.662;2022-10-16T05:55:17;1.17;;;1.08;;
24650;SDS011;12783;48.824;8.662;2022-10-16T05:57:43;2.40;;;1.20;;
24650;SDS011;12783;48.824;8.662;2022-10-16T06:00:10;1.98;;;1.00;;
24650;SDS011;12783;48.824;8.662;2022-10-16T06:02:37;4.50;;;0.90;;
24650;SDS011;12783;48.824;8.662;2022-10-16T06:05:04;3.05;;;1.25;;
24650;SDS011;12783;48.824;8.662;2022-10-16T06:07:33;6.25;;;1.20;;
24650;SDS011;12783;48.824;8.662;2022-10-16T06:10:01;1.35;;;1.00;;
24650;SDS011;12783;48.824;8.662;2022-10-16T06:12:29;4.07;;;0.93;;
24650;SDS011;12783;48.824;8.662;2022-10-16T06:14:55;2.88;;;1.00;;
24650;SDS011;12783;48.824;8.662;2022-10-16T06:17:22;2.55;;;0.80;;
24650;SDS011;12783;48.824;8.662;2022-10-16T06:19:49;2.08;;;0.93;;
24650;SDS011;12783;48.824;8.662;2022-10-16T06:22:16;1.08;;;0.77;;
24650;SDS011;12783;48.824;8.662;2022-10-16T06:24:43;1.00;;;0.80;;
24650;SDS011;12783;48.824;8.662;2022-10-16T06:27:09;1.20;;;0.88;;
24650;SDS011;12783;48.824;8.662;2022-10-16T06:29:36;2.15;;;0.88;;
24650;SDS011;12783;48.824;8.662;2022-10-16T06:32:03;5.30;;;0.90;;
24650;SDS011;12783;48.824;8.662;2022-10-16T06:34:30;1.63;;;1.00;;
24650;SDS011;12783;48.824;8.662;2022-10-16T06:36:56;1.00;;;0.90;;
24650;SDS011;12783;48.824;8.662;2022-10-16T06:39:23;1.63;;;1.10;;
24650;SDS011;12783;48.824;8.662;2022-10-16T06:41:50;2.50;;;0.90;;
24650;SDS011;12783;48.824;8.662;2022-10-16T06:44:17;1.60;;;1.00;;
24650;SDS011;12783;48.824;8.662;2022-10-16T06:46:43;4.20;;;0.90;;
24650;SDS011;12783;48.824;8.662;2022-10-16T06:49:10;1.77;;;1.00;;
24650;SDS011;12783;48.824;8.662;2022-10-16T06:51:37;4.10;;;0.90;;
24650;SDS011;12783;48.824;8.662;2022-10-16T06:54:08;1.55;;;0.90;;
24650;SDS011;12783;48.824;8.662;2022-10-16T06:56:35;3.50;;;1.10;;
24650;SDS011;12783;48.824;8.662;2022-10-16T06:59:03;4.45;;;1.00;;
24650;SDS011;12783;48.824;8.662;2022-10-16T07:01:30;3.40;;;0.90;;
24650;SDS011;12783;48.824;8.662;2022-10-16T07:03:57;1.73;;;0.90;;
24650;SDS011;12783;48.824;8.662;2022-10-16T07:06:25;2.47;;;1.17;;
24650;SDS011;12783;48.824;8.662;2022-10-16T07:08:52;1.67;;;0.90;;
24650;SDS011;12783;48.824;8.662;2022-10-16T07:11:20;2.45;;;1.00;;
24650;SDS011;12783;48.824;8.662;2022-10-16T07:13:48;0.80;;;0.80;;
24650;SDS011;12783;48.824;8.662;2022-10-16T07:16:28;1.63;;;0.80;;
24650;SDS011;12783;48.824;8.662;2022-10-16T07:19:00;2.47;;;0.90;;
24650;SDS011;12783;48.824;8.662;2022-10-16T07:21:28;1.30;;;0.90;;
24650;SDS011;12783;48.824;8.662;2022-10-16T07:24:03;5.65;;;1.00;;
24650;SDS011;12783;48.824;8.662;2022-10-16T07:26:32;1.75;;;1.13;;
24650;SDS011;12783;48.824;8.662;2022-10-16T07:29:00;3.45;;;0.80;;
24650;SDS011;12783;48.824;8.662;2022-10-16T07:31:27;5.75;;;1.08;;
24650;SDS011;12783;48.824;8.662;2022-10-16T07:33:54;1.23;;;1.00;;
24650;SDS011;12783;48.824;8.662;2022-10-16T07:36:21;5.38;;;0.93;;
24650;SDS011;12783;48.824;8.662;2022-10-16T07:38:48;2.25;;;1.10;;
24650;SDS011;12783;48.824;8.662;2022-10-16T07:41:19;6.95;;;1.08;;
24650;SDS011;12783;48.824;8.662;2022-10-16T07:43:50;2.70;;;0.95;;
24650;SDS011;12783;48.824;8.662;2022-10-16T07:46:19;3.15;;;0.90;;
24650;SDS011;12783;48.824;8.662;2022-10-16T07:48:46;3.60;;;1.10;;
24650;SDS011;12783;48.824;8.662;2022-10-16T07:51:15;4.40;;;1.20;;
24650;SDS011;12783;48.824;8.662;2022-10-16T07:53:43;1.10;;;1.00;;
24650;SDS011;12783;48.824;8.662;2022-10-16T07:56:10;3.75;;;1.30;;
24650;SDS011;12783;48.824;8.662;2022-10-16T07:58:37;1.33;;;0.98;;
24650;SDS011;12783;48.824;8.662;2022-10-16T08:01:05;1.15;;;0.93;;
24650;SDS011;12783;48.824;8.662;2022-10-16T08:03:34;1.83;;;1.10;;
24650;SDS011;12783;48.824;8.662;2022-10-16T08:06:01;1.77;;;0.90;;
24650;SDS011;12783;48.824;8.662;2022-10-16T08:08:29;1.15;;;0.95;;
24650;SDS011;12783;48.824;8.662;2022-10-16T08:10:56;2.75;;;1.00;;
24650;SDS011;12783;48.824;8.662;2022-10-16T08:13:22;5.90;;;1.15;;
24650;SDS011;12783;48.824;8.662;2022-10-16T08:15:50;2.08;;;0.80;;
24650;SDS011;12783;48.824;8.662;2022-10-16T08:18:16;3.85;;;0.95;;
24650;SDS011;12783;48.824;8.662;2022-10-16T08:20:43;1.75;;;1.00;;
24650;SDS011;12783;48.824;8.662;2022-10-16T08:23:13;1.92;;;1.00;;
24650;SDS011;12783;48.824;8.662;2022-10-16T08:25:40;3.97;;;0.95;;
24650;SDS011;12783;48.824;8.662;2022-10-16T08:28:08;1.10;;;1.00;;
24650;SDS011;12783;48.824;8.662;2022-10-16T08:30:36;1.55;;;1.02;;
24650;SDS011;12783;48.824;8.662;2022-10-16T08:33:04;2.15;;;0.98;;
24650;SDS011;12783;48.824;8.662;2022-10-16T08:35:32;5.72;;;1.17;;
24650;SDS011;12783;48.824;8.662;2022-10-16T08:37:59;1.33;;;1.00;;
24650;SDS011;12783;48.824;8.662;2022-10-16T08:40:26;1.25;;;1.10;;
24650;SDS011;12783;48.824;8.662;2022-10-16T08:48:26;1.52;;;0.80;;
24650;SDS011;12783;48.824;8.662;2022-10-16T08:50:54;1.48;;;1.00;;
24650;SDS011;12783;48.824;8.662;2022-10-16T08:53:31;2.35;;;1.00;;
24650;SDS011;12783;48.824;8.662;2022-10-16T08:56:11;2.90;;;1.30;;
24650;SDS011;12783;48.824;8.662;2022-10-16T08:58:37;2.70;;;1.00;;
24650;SDS011;12783;48.824;8.662;2022-10-16T09:01:08;2.80;;;1.05;;
24650;SDS011;12783;48.824;8.662;2022-10-16T09:09:03;0.80;;;0.80;;
24650;SDS011;12783;48.824;8.662;2022-10-16T09:11:47;1.38;;;0.95;;
24650;SDS011;12783;48.824;8.662;2022-10-16T09:22:51;2.50;;;0.85;;
24650;SDS011;12783;48.824;8.662;2022-10-16T09:25:21;1.08;;;0.90;;
24650;SDS011;12783;48.824;8.662;2022-10-16T09:27:48;2.10;;;1.00;;
24650;SDS011;12783;48.824;8.662;2022-10-16T09:30:18;1.52;;;1.00;;
24650;SDS011;12783;48.824;8.662;2022-10-16T09:32:47;2.47;;;0.70;;
24650;SDS011;12783;48.824;8.662;2022-10-16T09:35:17;3.47;;;0.90;;
24650;SDS011;12783;48.824;8.662;2022-10-16T09:37:47;3.13;;;0.93;;
24650;SDS011;12783;48.824;8.662;2022-10-16T09:40:32;1.58;;;0.70;;
24650;SDS011;12783;48.824;8.662;2022-10-16T09:46:07;3.25;;;0.65;;
24650;SDS011;12783;48.824;8.662;2022-10-16T09:48:49;0.77;;;0.77;;
24650;SDS011;12783;48.824;8.662;2022-10-16T09:51:24;1.48;;;0.98;;
24650;SDS011;12783;48.824;8.662;2022-10-16T09:53:57;2.13;;;1.00;;
24650;SDS011;12783;48.824;8.662;2022-10-16T09:56:47;6.65;;;0.95;;
24650;SDS011;12783;48.824;8.662;2022-10-16T09:59:21;3.42;;;0.90;;
24650;SDS011;12783;48.824;8.662;2022-10-16T10:01:53;1.25;;;0.80;;
24650;SDS011;12783;48.824;8.662;2022-10-16T10:04:24;2.83;;;0.95;;
24650;SDS011;12783;48.824;8.662;2022-10-16T10:06:55;2.72;;;0.70;;
24650;SDS011;12783;48.824;8.662;2022-10-16T10:19:40;3.00;;;0.73;;
24650;SDS011;12783;48.824;8.662;2022-10-16T10:22:44;4.47;;;0.88;;
24650;SDS011;12783;48.824;8.662;2022-10-16T10:27:36;5.53;;;1.20;;
24650;SDS011;12783;48.824;8.662;2022-10-16T10:30:26;2.33;;;0.90;;
24650;SDS011;12783;48.824;8.662;2022-10-16T10:33:27;3.38;;;0.80;;
24650;SDS011;12783;48.824;8.662;2022-10-16T10:46:46;1.60;;;1.20;;
24650;SDS011;12783;48.824;8.662;2022-10-16T10:52:33;2.20;;;0.90;;
24650;SDS011;12783;48.824;8.662;2022-10-16T11:03:23;2.60;;;1.10;;
24650;SDS011;12783;48.824;8.662;2022-10-16T11:06:03;1.65;;;1.25;;
24650;SDS011;12783;48.824;8.662;2022-10-16T11:11:09;4.10;;;1.20;;
24650;SDS011;12783;48.824;8.662;2022-10-16T11:16:33;1.85;;;1.17;;
24650;SDS011;12783;48.824;8.662;2022-10-16T11:19:03;3.38;;;1.15;;
24650;SDS011;12783;48.824;8.662;2022-10-16T11:21:54;2.55;;;1.20;;
24650;SDS011;12783;48.824;8.662;2022-10-16T11:24:59;4.50;;;1.40;;
24650;SDS011;12783;48.824;8.662;2022-10-16T11:27:36;2.90;;;1.17;;
24650;SDS011;12783;48.824;8.662;2022-10-16T11:30:25;2.67;;;1.20;;
24650;SDS011;12783;48.824;8.662;2022-10-16T11:38:12;5.15;;;1.42;;
24650;SDS011;12783;48.824;8.662;2022-10-16T11:40:41;6.57;;;1.17;;
24650;SDS011;12783;48.824;8.662;2022-10-16T11:46:02;4.40;;;1.35;;
24650;SDS011;12783;48.824;8.662;2022-10-16T11:51:11;1.10;;;1.00;;
24650;SDS011;12783;48.824;8.662;2022-10-16T11:53:45;2.65;;;1.10;;
24650;SDS011;12783;48.824;8.662;2022-10-16T11:56:24;1.73;;;1.08;;
24650;SDS011;12783;48.824;8.662;2022-10-16T11:58:53;2.33;;;1.50;;
24650;SDS011;12783;48.824;8.662;2022-10-16T12:01:27;7.32;;;1.30;;
24650;SDS011;12783;48.824;8.662;2022-10-16T12:07:05;1.20;;;1.10;;
24650;SDS011;12783;48.824;8.662;2022-10-16T12:09:36;1.25;;;1.10;;
24650;SDS011;12783;48.824;8.662;2022-10-16T12:12:04;1.95;;;1.05;;
24650;SDS011;12783;48.824;8.662;2022-10-16T12:14:59;5.63;;;1.13;;
24650;SDS011;12783;48.824;8.662;2022-10-16T12:18:07;1.77;;;1.30;;
24650;SDS011;12783;48.824;8.662;2022-10-16T12:20:53;1.17;;;0.90;;
24650;SDS011;12783;48.824;8.662;2022-10-16T12:23:36;1.65;;;1.13;;
24650;SDS011;12783;48.824;8.662;2022-10-16T12:26:05;2.42;;;1.20;;
24650;SDS011;12783;48.824;8.662;2022-10-16T12:28:32;3.38;;;1.20;;
24650;SDS011;12783;48.824;8.662;2022-10-16T12:31:01;4.63;;;1.23;;
24650;SDS011;12783;48.824;8.662;2022-10-16T12:33:53;4.40;;;1.25;;
24650;SDS011;12783;48.824;8.662;2022-10-16T12:38:55;2.75;;;1.20;;
24650;SDS011;12783;48.824;8.662;2022-10-16T12:43:59;4.03;;;1.20;;
24650;SDS011;12783;48.824;8.662;2022-10-16T12:49:06;2.08;;;1.20;;
24650;SDS011;12783;48.824;8.662;2022-10-16T12:51:40;2.88;;;1.02;;
24650;SDS011;12783;48.824;8.662;2022-10-16T12:54:12;1.75;;;1.00;;
24650;SDS011;12783;48.824;8.662;2022-10-16T12:59:57;1.83;;;1.15;;
24650;SDS011;12783;48.824;8.662;2022-10-16T13:08:29;2.10;;;1.17;;
24650;SDS011;12783;48.824;8.662;2022-10-16T13:14:19;2.67;;;1.45;;
24650;SDS011;12783;48.824;8.662;2022-10-16T13:20:05;5.63;;;1.30;;
24650;SDS011;12783;48.824;8.662;2022-10-16T13:25:33;6.38;;;1.60;;
24650;SDS011;12783;48.824;8.662;2022-10-16T13:28:06;3.58;;;1.67;;
24650;SDS011;12783;48.824;8.662;2022-10-16T13:30:37;4.60;;;1.80;;
24650;SDS011;12783;48.824;8.662;2022-10-16T13:33:15;1.40;;;1.30;;
24650;SDS011;12783;48.824;8.662;2022-10-16T13:35:48;4.78;;;1.45;;
24650;SDS011;12783;48.824;8.662;2022-10-16T13:38:21;3.17;;;1.13;;
24650;SDS011;12783;48.824;8.662;2022-10-16T13:40:58;3.45;;;1.23;;
24650;SDS011;12783;48.824;8.662;2022-10-16T13:43:39;7.30;;;1.65;;
24650;SDS011;12783;48.824;8.662;2022-10-16T13:46:12;2.05;;;1.20;;
24650;SDS011;12783;48.824;8.662;2022-10-16T13:48:41;1.92;;;1.13;;
24650;SDS011;12783;48.824;8.662;2022-10-16T13:51:13;2.20;;;1.38;;
24650;SDS011;12783;48.824;8.662;2022-10-16T13:53:42;2.75;;;1.20;;
24650;SDS011;12783;48.824;8.662;2022-10-16T13:56:11;3.90;;;1.50;;
24650;SDS011;12783;48.824;8.662;2022-10-16T13:58:39;4.03;;;1.40;;
24650;SDS011;12783;48.824;8.662;2022-10-16T14:04:01;2.80;;;1.20;;
24650;SDS011;12783;48.824;8.662;2022-10-16T14:06:33;1.50;;;1.40;;
24650;SDS011;12783;48.824;8.662;2022-10-16T14:09:01;3.03;;;1.52;;
24650;SDS011;12783;48.824;8.662;2022-10-16T14:11:43;5.10;;;1.50;;
24650;SDS011;12783;48.824;8.662;2022-10-16T14:14:12;4.28;;;1.40;;
24650;SDS011;12783;48.824;8.662;2022-10-16T14:16:40;4.50;;;1.45;;
24650;SDS011;12783;48.824;8.662;2022-10-16T14:19:12;5.13;;;1.50;;
24650;SDS011;12783;48.824;8.662;2022-10-16T14:21:50;5.65;;;1.42;;
24650;SDS011;12783;48.824;8.662;2022-10-16T14:26:58;2.15;;;1.33;;
24650;SDS011;12783;48.824;8.662;2022-10-16T14:29:28;3.78;;;1.40;;
24650;SDS011;12783;48.824;8.662;2022-10-16T14:31:59;10.38;;;1.60;;
24650;SDS011;12783;48.824;8.662;2022-10-16T14:34:29;3.20;;;1.40;;
24650;SDS011;12783;48.824;8.662;2022-10-16T14:37:01;2.90;;;1.50;;
24650;SDS011;12783;48.824;8.662;2022-10-16T14:39:36;6.30;;;1.30;;
24650;SDS011;12783;48.824;8.662;2022-10-16T14:42:03;8.25;;;1.20;;
24650;SDS011;12783;48.824;8.662;2022-10-16T14:44:33;5.80;;;1.40;;
24650;SDS011;12783;48.824;8.662;2022-10-16T14:47:09;2.60;;;1.50;;
24650;SDS011;12783;48.824;8.662;2022-10-16T14:49:40;8.15;;;1.42;;
24650;SDS011;12783;48.824;8.662;2022-10-16T14:52:08;2.67;;;1.10;;
24650;SDS011;12783;48.824;8.662;2022-10-16T14:54:36;4.40;;;1.30;;
24650;SDS011;12783;48.824;8.662;2022-10-16T14:57:03;4.18;;;1.40;;
24650;SDS011;12783;48.824;8.662;2022-10-16T14:59:38;7.53;;;4.78;;
24650;SDS011;12783;48.824;8.662;2022-10-16T15:02:27;4.90;;;2.75;;
24650;SDS011;12783;48.824;8.662;2022-10-16T15:05:01;2.60;;;1.55;;
24650;SDS011;12783;48.824;8.662;2022-10-16T15:07:39;3.25;;;1.50;;
24650;SDS011;12783;48.824;8.662;2022-10-16T15:10:07;5.97;;;1.27;;
24650;SDS011;12783;48.824;8.662;2022-10-16T15:12:34;5.22;;;1.30;;
24650;SDS011;12783;48.824;8.662;2022-10-16T15:15:01;2.35;;;1.48;;
24650;SDS011;12783;48.824;8.662;2022-10-16T15:17:31;3.80;;;1.10;;
24650;SDS011;12783;48.824;8.662;2022-10-16T15:19:57;3.97;;;1.20;;
24650;SDS011;12783;48.824;8.662;2022-10-16T15:22:25;3.05;;;1.60;;
24650;SDS011;12783;48.824;8.662;2022-10-16T15:24:52;4.43;;;1.40;;
24650;SDS011;12783;48.824;8.662;2022-10-16T15:27:24;4.65;;;1.73;;
24650;SDS011;12783;48.824;8.662;2022-10-16T15:29:57;3.00;;;1.30;;
24650;SDS011;12783;48.824;8.662;2022-10-16T15:32:24;1.92;;;1.30;;
24650;SDS011;12783;48.824;8.662;2022-10-16T15:34:51;1.30;;;1.20;;
24650;SDS011;12783;48.824;8.662;2022-10-16T15:37:17;1.70;;;1.33;;
24650;SDS011;12783;48.824;8.662;2022-10-16T15:39:45;3.63;;;1.60;;
24650;SDS011;12783;48.824;8.662;2022-10-16T15:42:11;3.55;;;1.40;;
24650;SDS011;12783;48.824;8.662;2022-10-16T15:44:38;3.58;;;1.48;;
24650;SDS011;12783;48.824;8.662;2022-10-16T15:47:05;1.42;;;1.30;;
24650;SDS011;12783;48.824;8.662;2022-10-16T15:49:32;4.60;;;1.42;;
24650;SDS011;12783;48.824;8.662;2022-10-16T15:51:58;4.25;;;1.40;;
24650;SDS011;12783;48.824;8.662;2022-10-16T15:54:25;3.25;;;1.50;;
24650;SDS011;12783;48.824;8.662;2022-10-16T15:56:52;6.13;;;1.35;;
24650;SDS011;12783;48.824;8.662;2022-10-16T15:59:18;3.20;;;1.30;;
24650;SDS011;12783;48.824;8.662;2022-10-16T16:01:45;6.43;;;1.38;;
24650;SDS011;12783;48.824;8.662;2022-10-16T16:04:12;3.67;;;1.42;;
24650;SDS011;12783;48.824;8.662;2022-10-16T16:06:59;9.55;;;1.50;;
24650;SDS011;12783;48.824;8.662;2022-10-16T16:09:30;1.65;;;1.52;;
24650;SDS011;12783;48.824;8.662;2022-10-16T16:11:57;7.07;;;1.77;;
24650;SDS011;12783;48.824;8.662;2022-10-16T16:14:26;5.85;;;2.10;;
24650;SDS011;12783;48.824;8.662;2022-10-16T16:16:57;3.63;;;1.40;;
24650;SDS011;12783;48.824;8.662;2022-10-16T16:19:24;4.65;;;1.90;;
24650;SDS011;12783;48.824;8.662;2022-10-16T16:21:50;2.83;;;1.70;;
24650;SDS011;12783;48.824;8.662;2022-10-16T16:24:17;3.97;;;1.65;;
24650;SDS011;12783;48.824;8.662;2022-10-16T16:26:44;3.22;;;1.50;;
24650;SDS011;12783;48.824;8.662;2022-10-16T16:29:11;4.78;;;1.85;;
24650;SDS011;12783;48.824;8.662;2022-10-16T16:31:39;4.65;;;1.80;;
24650;SDS011;12783;48.824;8.662;2022-10-16T16:34:07;3.13;;;1.90;;
24650;SDS011;12783;48.824;8.662;2022-10-16T16:36:35;5.72;;;1.75;;
24650;SDS011;12783;48.824;8.662;2022-10-16T16:39:02;5.03;;;1.73;;
24650;SDS011;12783;48.824;8.662;2022-10-16T16:41:29;3.50;;;1.52;;
24650;SDS011;12783;48.824;8.662;2022-10-16T16:44:06;4.03;;;1.77;;
24650;SDS011;12783;48.824;8.662;2022-10-16T16:46:34;3.67;;;1.60;;
24650;SDS011;12783;48.824;8.662;2022-10-16T16:49:01;10.02;;;2.53;;
24650;SDS011;12783;48.824;8.662;2022-10-16T16:51:28;3.28;;;2.05;;
24650;SDS011;12783;48.824;8.662;2022-10-16T16:53:59;2.97;;;1.92;;
24650;SDS011;12783;48.824;8.662;2022-10-16T16:56:25;5.78;;;1.83;;
24650;SDS011;12783;48.824;8.662;2022-10-16T16:58:53;8.05;;;2.33;;
24650;SDS011;12783;48.824;8.662;2022-10-16T17:01:21;3.10;;;1.90;;
24650;SDS011;12783;48.824;8.662;2022-10-16T17:03:50;5.40;;;2.17;;
24650;SDS011;12783;48.824;8.662;2022-10-16T17:06:19;8.90;;;2.20;;
24650;SDS011;12783;48.824;8.662;2022-10-16T17:08:47;2.85;;;2.05;;
24650;SDS011;12783;48.824;8.662;2022-10-16T17:11:19;5.57;;;2.35;;